sensor_id;sensor_type;location;lat;lon;timestamp;pressure;altitude;pressure_sealevel;temperature;humidity
30554;BME280;17335;50.720;7.452;2024-02-26T00:01:00;97460.25;;;6.28;100.00
30554;BME280;17335;50.720;7.452;2024-02-26T00:03:26;97461.59;;;6.24;100.00
30554;BME280;17335;50.720;7.452;2024-02-26T00:05:53;97457.44;;;6.30;100.00
30554;BME280;17335;50.720;7.452;2024-02-26T00:08:20;97453.94;;;6.37;100.00
30554;BME280;17335;50.720;7.452;2024-02-26T00:10:46;97450.75;;;6.26;100.00
30554;BME280;17335;50.720;7.452;2024-02-26T00:13:12;97452.41;;;6.18;100.00
30554;BME280;17335;50.720;7.452;2024-02-26T00:15:39;97452.56;;;6.17;100.00
30554;BME280;17335;50.720;7.452;2024-02-26T00:18:05;97452.06;;;6.13;100.00
30554;BME280;17335;50.720;7.452;2024-02-26T00:20:32;97445.25;;;6.11;100.00
30554;BME280;17335;50.720;7.452;2024-02-26T00:22:58;97435.25;;;6.13;100.00
30554;BME280;17335;50.720;7.452;2024-02-26T00:25:25;97439.56;;;6.06;100.00
30554;BME280;17335;50.720;7.452;2024-02-26T00:27:51;97439.56;;;6.06;100.00
30554;BME280;17335;50.720;7.452;2024-02-26T00:30:17;97436.88;;;5.97;100.00
30554;BME280;17335;50.720;7.452;2024-02-26T00:32:44;97440.53;;;5.96;100.00
30554;BME280;17335;50.720;7.452;2024-02-26T00:35:10;97432.34;;;5.90;100.00
30554;BME280;17335;50.720;7.452;2024-02-26T00:37:37;97430.22;;;6.01;100.00
30554;BME280;17335;50.720;7.452;2024-02-26T00:40:03;97427.03;;;5.90;100.00
30554;BME280;17335;50.720;7.452;2024-02-26T00:42:30;97431.00;;;5.94;100.00
30554;BME280;17335;50.720;7.452;2024-02-26T00:44:57;97425.69;;;5.94;100.00
30554;BME280;17335;50.720;7.452;2024-02-26T00:47:23;97436.19;;;5.95;100.00
30554;BME280;17335;50.720;7.452;2024-02-26T00:49:49;97439.00;;;5.94;100.00
30554;BME280;17335;50.720;7.452;2024-02-26T00:52:16;97427.38;;;5.95;100.00
30554;BME280;17335;50.720;7.452;2024-02-26T00:54:42;97422.91;;;6.12;100.00
30554;BME280;17335;50.720;7.452;2024-02-26T00:57:09;97407.97;;;6.19;100.00
30554;BME280;17335;50.720;7.452;2024-02-26T00:59:35;97423.44;;;6.07;100.00
30554;BME280;17335;50.720;7.452;2024-02-26T01:02:02;97425.75;;;6.02;100.00
30554;BME280;17335;50.720;7.452;2024-02-26T01:04:28;97430.56;;;6.07;100.00
30554;BME280;17335;50.720;7.452;2024-02-26T01:06:55;97431.09;;;6.10;100.00
30554;BME280;17335;50.720;7.452;2024-02-26T01:09:21;97432.28;;;6.24;100.00
30554;BME280;17335;50.720;7.452;2024-02-26T01:11:48;97424.94;;;6.18;100.00
30554;BME280;17335;50.720;7.452;2024-02-26T01:14:14;97432.59;;;6.13;100.00
30554;BME280;17335;50.720;7.452;2024-02-26T01:16:41;97438.22;;;6.01;100.00
30554;BME280;17335;50.720;7.452;2024-02-26T01:19:07;97431.41;;;6.15;100.00
30554;BME280;17335;50.720;7.452;2024-02-26T01:21:34;97434.25;;;6.22;100.00
30554;BME280;17335;50.720;7.452;2024-02-26T01:24:00;97425.22;;;6.07;100.00
30554;BME280;17335;50.720;7.452;2024-02-26T01:26:27;97422.75;;;5.97;100.00
30554;BME280;17335;50.720;7.452;2024-02-26T01:28:53;97428.19;;;5.95;100.00
30554;BME280;17335;50.720;7.452;2024-02-26T01:31:21;97412.19;;;5.87;100.00
30554;BME280;17335;50.720;7.452;2024-02-26T01:33:47;97422.00;;;5.78;100.00
30554;BME280;17335;50.720;7.452;2024-02-26T01:36:14;97419.78;;;5.74;100.00
30554;BME280;17335;50.720;7.452;2024-02-26T01:38:40;97414.47;;;5.66;100.00
30554;BME280;17335;50.720;7.452;2024-02-26T01:41:07;97417.28;;;5.72;100.00
30554;BME280;17335;50.720;7.452;2024-02-26T01:43:33;97411.47;;;5.69;100.00
30554;BME280;17335;50.720;7.452;2024-02-26T01:46:01;97416.16;;;5.75;100.00
30554;BME280;17335;50.720;7.452;2024-02-26T01:48:27;97415.50;;;5.73;100.00
30554;BME280;17335;50.720;7.452;2024-02-26T01:50:54;97422.09;;;5.69;100.00
30554;BME280;17335;50.720;7.452;2024-02-26T01:53:21;97410.34;;;5.79;100.00
30554;BME280;17335;50.720;7.452;2024-02-26T01:55:47;97414.47;;;5.74;100.00
30554;BME280;17335;50.720;7.452;2024-02-26T01:58:14;97406.13;;;5.69;100.00
30554;BME280;17335;50.720;7.452;2024-02-26T02:00:41;97407.34;;;5.74;100.00
30554;BME280;17335;50.720;7.452;2024-02-26T02:03:08;97409.66;;;5.69;100.00
30554;BME280;17335;50.720;7.452;2024-02-26T02:05:36;97409.97;;;5.66;100.00
30554;BME280;17335;50.720;7.452;2024-02-26T02:08:10;97413.47;;;5.67;100.00
30554;BME280;17335;50.720;7.452;2024-02-26T02:10:38;97408.63;;;5.70;100.00
30554;BME280;17335;50.720;7.452;2024-02-26T02:13:04;97409.31;;;5.72;100.00
30554;BME280;17335;50.720;7.452;2024-02-26T02:15:31;97401.81;;;5.76;100.00
30554;BME280;17335;50.720;7.452;2024-02-26T02:17:58;97407.47;;;5.64;100.00
30554;BME280;17335;50.720;7.452;2024-02-26T02:20:26;97407.50;;;5.73;100.00
30554;BME280;17335;50.720;7.452;2024-02-26T02:22:53;97402.78;;;5.58;100.00
30554;BME280;17335;50.720;7.452;2024-02-26T02:25:20;97408.28;;;5.65;100.00
30554;BME280;17335;50.720;7.452;2024-02-26T02:27:46;97402.09;;;5.56;100.00
30554;BME280;17335;50.720;7.452;2024-02-26T02:30:13;97403.94;;;5.56;100.00
30554;BME280;17335;50.720;7.452;2024-02-26T02:32:40;97405.94;;;5.54;100.00
30554;BME280;17335;50.720;7.452;2024-02-26T02:35:08;97399.41;;;5.48;100.00
30554;BME280;17335;50.720;7.452;2024-02-26T02:37:35;97405.25;;;5.52;100.00
30554;BME280;17335;50.720;7.452;2024-02-26T02:40:01;97394.25;;;5.47;100.00
30554;BME280;17335;50.720;7.452;2024-02-26T02:42:28;97400.38;;;5.39;100.00
30554;BME280;17335;50.720;7.452;2024-02-26T02:44:54;97398.19;;;5.34;100.00
30554;BME280;17335;50.720;7.452;2024-02-26T02:47:21;97411.34;;;5.36;100.00
30554;BME280;17335;50.720;7.452;2024-02-26T02:49:47;97404.53;;;5.33;100.00
30554;BME280;17335;50.720;7.452;2024-02-26T02:52:14;97405.72;;;5.39;100.00
30554;BME280;17335;50.720;7.452;2024-02-26T02:54:41;97404.88;;;5.47;100.00
30554;BME280;17335;50.720;7.452;2024-02-26T02:57:09;97405.75;;;5.47;100.00
30554;BME280;17335;50.720;7.452;2024-02-26T02:59:37;97404.38;;;5.43;100.00
30554;BME280;17335;50.720;7.452;2024-02-26T03:02:04;97406.72;;;5.46;100.00
30554;BME280;17335;50.720;7.452;2024-02-26T03:04:31;97405.09;;;5.53;100.00
30554;BME280;17335;50.720;7.452;2024-02-26T03:06:58;97404.16;;;5.62;100.00
30554;BME280;17335;50.720;7.452;2024-02-26T03:09:24;97414.66;;;5.80;100.00
30554;BME280;17335;50.720;7.452;2024-02-26T03:11:51;97407.16;;;5.76;100.00
30554;BME280;17335;50.720;7.452;2024-02-26T03:14:17;97407.16;;;5.76;100.00
30554;BME280;17335;50.720;7.452;2024-02-26T03:16:44;97404.34;;;5.77;100.00
30554;BME280;17335;50.720;7.452;2024-02-26T03:19:10;97395.06;;;5.90;100.00
30554;BME280;17335;50.720;7.452;2024-02-26T03:21:37;97401.84;;;5.84;100.00
30554;BME280;17335;50.720;7.452;2024-02-26T03:24:04;97398.34;;;5.75;100.00
30554;BME280;17335;50.720;7.452;2024-02-26T03:26:31;97395.34;;;5.70;100.00
30554;BME280;17335;50.720;7.452;2024-02-26T03:28:57;97392.66;;;5.70;100.00
30554;BME280;17335;50.720;7.452;2024-02-26T03:31:24;97389.31;;;5.60;100.00
30554;BME280;17335;50.720;7.452;2024-02-26T03:33:50;97393.00;;;5.67;100.00
30554;BME280;17335;50.720;7.452;2024-02-26T03:36:17;97404.16;;;5.62;100.00
30554;BME280;17335;50.720;7.452;2024-02-26T03:38:43;97397.97;;;5.54;100.00
30554;BME280;17335;50.720;7.452;2024-02-26T03:41:10;97400.44;;;5.47;100.00
30554;BME280;17335;50.720;7.452;2024-02-26T03:43:36;97405.75;;;5.47;100.00
30554;BME280;17335;50.720;7.452;2024-02-26T03:46:03;97404.72;;;5.48;100.00
30554;BME280;17335;50.720;7.452;2024-02-26T03:48:29;97415.09;;;5.59;100.00
30554;BME280;17335;50.720;7.452;2024-02-26T03:50:56;97415.88;;;5.52;100.00
30554;BME280;17335;50.720;7.452;2024-02-26T03:53:23;97417.44;;;5.62;100.00
30554;BME280;17335;50.720;7.452;2024-02-26T03:55:49;97420.75;;;5.56;100.00
30554;BME280;17335;50.720;7.452;2024-02-26T03:58:18;97420.44;;;5.59;100.00
30554;BME280;17335;50.720;7.452;2024-02-26T04:00:44;97417.44;;;5.62;100.00
30554;BME280;17335;50.720;7.452;2024-02-26T04:03:11;97420.78;;;5.64;100.00
30554;BME280;17335;50.720;7.452;2024-02-26T04:05:37;97428.81;;;5.73;100.00
30554;BME280;17335;50.720;7.452;2024-02-26T04:08:04;97429.16;;;5.78;100.00
30554;BME280;17335;50.720;7.452;2024-02-26T04:10:33;97430.13;;;5.77;100.00
30554;BME280;17335;50.720;7.452;2024-02-26T04:13:06;97432.16;;;5.83;100.00
30554;BME280;17335;50.720;7.452;2024-02-26T04:15:33;97437.66;;;5.81;100.00
30554;BME280;17335;50.720;7.452;2024-02-26T04:18:00;97437.47;;;5.83;100.00
30554;BME280;17335;50.720;7.452;2024-02-26T04:20:26;97437.97;;;5.78;100.00
30554;BME280;17335;50.720;7.452;2024-02-26T04:22:53;97439.44;;;5.81;100.00
30554;BME280;17335;50.720;7.452;2024-02-26T04:25:19;97438.78;;;5.79;100.00
30554;BME280;17335;50.720;7.452;2024-02-26T04:27:45;97445.47;;;5.83;100.00
30554;BME280;17335;50.720;7.452;2024-02-26T04:30:12;97449.94;;;5.74;100.00
30554;BME280;17335;50.720;7.452;2024-02-26T04:32:39;97444.47;;;5.84;100.00
30554;BME280;17335;50.720;7.452;2024-02-26T04:35:05;97455.06;;;5.76;100.00
30554;BME280;17335;50.720;7.452;2024-02-26T04:37:32;97453.44;;;5.75;100.00
30554;BME280;17335;50.720;7.452;2024-02-26T04:39:59;97447.75;;;5.70;100.00
30554;BME280;17335;50.720;7.452;2024-02-26T04:42:27;97442.22;;;5.63;100.00
30554;BME280;17335;50.720;7.452;2024-02-26T04:44:54;97452.38;;;5.59;100.00
30554;BME280;17335;50.720;7.452;2024-02-26T04:47:21;97451.84;;;5.56;100.00
30554;BME280;17335;50.720;7.452;2024-02-26T04:49:50;97459.16;;;5.54;100.00
30554;BME280;17335;50.720;7.452;2024-02-26T04:52:18;97461.34;;;5.58;100.00
30554;BME280;17335;50.720;7.452;2024-02-26T04:54:45;97470.16;;;5.59;100.00
30554;BME280;17335;50.720;7.452;2024-02-26T04:57:11;97465.81;;;5.58;100.00
30554;BME280;17335;50.720;7.452;2024-02-26T04:59:38;97465.78;;;5.50;100.00
30554;BME280;17335;50.720;7.452;2024-02-26T05:02:04;97469.09;;;5.52;100.00
30554;BME280;17335;50.720;7.452;2024-02-26T05:04:31;97468.09;;;5.44;100.00
30554;BME280;17335;50.720;7.452;2024-02-26T05:06:57;97464.50;;;5.62;100.00
30554;BME280;17335;50.720;7.452;2024-02-26T05:09:24;97467.41;;;5.42;100.00
30554;BME280;17335;50.720;7.452;2024-02-26T05:11:51;97466.22;;;5.37;100.00
30554;BME280;17335;50.720;7.452;2024-02-26T05:14:17;97465.38;;;5.36;100.00
30554;BME280;17335;50.720;7.452;2024-02-26T05:16:44;97458.28;;;5.45;100.00
30554;BME280;17335;50.720;7.452;2024-02-26T05:19:10;97464.13;;;5.49;100.00
30554;BME280;17335;50.720;7.452;2024-02-26T05:21:37;97466.94;;;5.47;100.00
30554;BME280;17335;50.720;7.452;2024-02-26T05:24:04;97477.22;;;5.42;100.00
30554;BME280;17335;50.720;7.452;2024-02-26T05:26:30;97476.88;;;5.37;100.00
30554;BME280;17335;50.720;7.452;2024-02-26T05:28:56;97467.22;;;5.36;100.00
30554;BME280;17335;50.720;7.452;2024-02-26T05:31:26;97477.19;;;5.34;100.00
30554;BME280;17335;50.720;7.452;2024-02-26T05:33:53;97484.66;;;5.30;100.00
30554;BME280;17335;50.720;7.452;2024-02-26T05:36:21;97479.41;;;5.20;100.00
30554;BME280;17335;50.720;7.452;2024-02-26T05:38:49;97479.16;;;5.32;100.00
30554;BME280;17335;50.720;7.452;2024-02-26T05:41:16;97481.09;;;5.21;100.00
30554;BME280;17335;50.720;7.452;2024-02-26T05:43:42;97490.19;;;5.37;100.00
30554;BME280;17335;50.720;7.452;2024-02-26T05:46:09;97483.13;;;5.28;100.00
30554;BME280;17335;50.720;7.452;2024-02-26T05:48:35;97494.09;;;5.24;100.00
30554;BME280;17335;50.720;7.452;2024-02-26T05:51:02;97490.59;;;5.24;100.00
30554;BME280;17335;50.720;7.452;2024-02-26T05:53:30;97500.59;;;5.30;100.00
30554;BME280;17335;50.720;7.452;2024-02-26T05:55:56;97490.78;;;5.31;100.00
30554;BME280;17335;50.720;7.452;2024-02-26T05:58:23;97495.22;;;5.22;100.00
30554;BME280;17335;50.720;7.452;2024-02-26T06:00:49;97493.03;;;5.17;100.00
30554;BME280;17335;50.720;7.452;2024-02-26T06:03:16;97493.66;;;5.11;100.00
30554;BME280;17335;50.720;7.452;2024-02-26T06:05:42;97500.97;;;5.09;100.00
30554;BME280;17335;50.720;7.452;2024-02-26T06:08:10;97507.50;;;5.15;100.00
30554;BME280;17335;50.720;7.452;2024-02-26T06:10:36;97516.44;;;5.14;100.00
30554;BME280;17335;50.720;7.452;2024-02-26T06:13:03;97513.94;;;5.12;100.00
30554;BME280;17335;50.720;7.452;2024-02-26T06:15:29;97509.19;;;4.98;100.00
30554;BME280;17335;50.720;7.452;2024-02-26T06:17:56;97521.50;;;4.99;100.00
30554;BME280;17335;50.720;7.452;2024-02-26T06:20:22;97522.25;;;5.09;100.00
30554;BME280;17335;50.720;7.452;2024-02-26T06:22:49;97526.31;;;4.95;100.00
30554;BME280;17335;50.720;7.452;2024-02-26T06:25:15;97526.59;;;4.92;100.00
30554;BME280;17335;50.720;7.452;2024-02-26T06:27:42;97535.03;;;4.87;100.00
30554;BME280;17335;50.720;7.452;2024-02-26T06:30:09;97536.38;;;4.92;100.00
30554;BME280;17335;50.720;7.452;2024-02-26T06:32:37;97528.78;;;4.97;100.00
30554;BME280;17335;50.720;7.452;2024-02-26T06:35:04;97540.94;;;4.99;100.00
30554;BME280;17335;50.720;7.452;2024-02-26T06:37:36;97538.34;;;5.07;100.00
30554;BME280;17335;50.720;7.452;2024-02-26T06:40:03;97543.81;;;5.06;100.00
30554;BME280;17335;50.720;7.452;2024-02-26T06:42:30;97540.41;;;4.96;100.00
30554;BME280;17335;50.720;7.452;2024-02-26T06:44:57;97541.03;;;4.89;100.00
30554;BME280;17335;50.720;7.452;2024-02-26T06:47:23;97554.00;;;4.93;100.00
30554;BME280;17335;50.720;7.452;2024-02-26T06:49:50;97550.38;;;4.94;100.00
30554;BME280;17335;50.720;7.452;2024-02-26T06:52:16;97561.09;;;4.84;100.00
30554;BME280;17335;50.720;7.452;2024-02-26T06:54:43;97563.31;;;4.88;100.00
30554;BME280;17335;50.720;7.452;2024-02-26T06:57:09;97560.25;;;4.83;100.00
30554;BME280;17335;50.720;7.452;2024-02-26T06:59:36;97575.88;;;4.86;100.00
30554;BME280;17335;50.720;7.452;2024-02-26T07:02:02;97574.53;;;4.82;100.00
30554;BME280;17335;50.720;7.452;2024-02-26T07:04:29;97578.53;;;4.86;100.00
30554;BME280;17335;50.720;7.452;2024-02-26T07:06:57;97586.44;;;4.96;100.00
30554;BME280;17335;50.720;7.452;2024-02-26T07:09:24;97584.25;;;4.92;100.00
30554;BME280;17335;50.720;7.452;2024-02-26T07:11:51;97590.03;;;4.87;100.00
30554;BME280;17335;50.720;7.452;2024-02-26T07:14:18;97586.91;;;4.92;100.00
30554;BME280;17335;50.720;7.452;2024-02-26T07:16:46;97594.03;;;4.91;100.00
30554;BME280;17335;50.720;7.452;2024-02-26T07:19:13;97593.13;;;4.82;100.00
30554;BME280;17335;50.720;7.452;2024-02-26T07:21:39;97603.63;;;4.84;100.00
30554;BME280;17335;50.720;7.452;2024-02-26T07:24:06;97605.13;;;4.86;100.00
30554;BME280;17335;50.720;7.452;2024-02-26T07:26:33;97601.50;;;4.87;100.00
30554;BME280;17335;50.720;7.452;2024-02-26T07:28:59;97606.72;;;4.79;100.00
30554;BME280;17335;50.720;7.452;2024-02-26T07:31:26;97606.72;;;4.79;100.00
30554;BME280;17335;50.720;7.452;2024-02-26T07:33:52;97606.44;;;4.82;100.00
30554;BME280;17335;50.720;7.452;2024-02-26T07:36:19;97607.19;;;4.75;100.00
30554;BME280;17335;50.720;7.452;2024-02-26T07:38:46;97607.78;;;4.68;100.00
30554;BME280;17335;50.720;7.452;2024-02-26T07:41:14;97608.47;;;4.70;100.00
30554;BME280;17335;50.720;7.452;2024-02-26T07:43:41;97610.81;;;4.74;100.00
30554;BME280;17335;50.720;7.452;2024-02-26T07:46:07;97610.81;;;4.56;100.00
30554;BME280;17335;50.720;7.452;2024-02-26T07:48:37;97614.63;;;4.71;100.00
30554;BME280;17335;50.720;7.452;2024-02-26T07:51:04;97616.16;;;4.74;100.00
30554;BME280;17335;50.720;7.452;2024-02-26T07:53:31;97611.13;;;4.70;100.00
30554;BME280;17335;50.720;7.452;2024-02-26T07:55:57;97617.84;;;4.75;100.00
30554;BME280;17335;50.720;7.452;2024-02-26T07:58:24;97618.66;;;4.75;100.00
30554;BME280;17335;50.720;7.452;2024-02-26T08:00:50;97617.22;;;4.63;100.00
30554;BME280;17335;50.720;7.452;2024-02-26T08:03:17;97621.38;;;4.65;100.00
30554;BME280;17335;50.720;7.452;2024-02-26T08:05:43;97621.06;;;4.68;100.00
30554;BME280;17335;50.720;7.452;2024-02-26T08:08:10;97627.16;;;4.61;100.00
30554;BME280;17335;50.720;7.452;2024-02-26T08:10:37;97626.78;;;4.74;100.00
30554;BME280;17335;50.720;7.452;2024-02-26T08:13:03;97627.84;;;4.63;100.00
30554;BME280;17335;50.720;7.452;2024-02-26T08:15:33;97637.03;;;4.68;100.00
30554;BME280;17335;50.720;7.452;2024-02-26T08:18:01;97633.00;;;4.64;100.00
30554;BME280;17335;50.720;7.452;2024-02-26T08:20:32;97637.84;;;4.69;100.00
30554;BME280;17335;50.720;7.452;2024-02-26T08:22:59;97640.50;;;4.69;100.00
30554;BME280;17335;50.720;7.452;2024-02-26T08:25:25;97641.81;;;4.65;100.00
30554;BME280;17335;50.720;7.452;2024-02-26T08:27:52;97649.47;;;4.68;100.00
30554;BME280;17335;50.720;7.452;2024-02-26T08:30:18;97651.84;;;4.71;100.00
30554;BME280;17335;50.720;7.452;2024-02-26T08:32:48;97658.22;;;4.78;100.00
30554;BME280;17335;50.720;7.452;2024-02-26T08:35:18;97659.66;;;4.73;100.00
30554;BME280;17335;50.720;7.452;2024-02-26T08:37:46;97654.81;;;4.68;100.00
30554;BME280;17335;50.720;7.452;2024-02-26T08:40:14;97663.34;;;4.62;100.00
30554;BME280;17335;50.720;7.452;2024-02-26T08:42:40;97669.88;;;4.67;100.00
30554;BME280;17335;50.720;7.452;2024-02-26T08:45:08;97664.56;;;4.67;100.00
30554;BME280;17335;50.720;7.452;2024-02-26T08:47:35;97667.94;;;4.69;100.00
30554;BME280;17335;50.720;7.452;2024-02-26T08:50:01;97675.59;;;4.73;100.00
30554;BME280;17335;50.720;7.452;2024-02-26T08:52:28;97675.38;;;4.66;100.00
30554;BME280;17335;50.720;7.452;2024-02-26T08:54:55;97673.25;;;4.69;100.00
30554;BME280;17335;50.720;7.452;2024-02-26T08:57:21;97673.19;;;4.79;100.00
30554;BME280;17335;50.720;7.452;2024-02-26T08:59:48;97681.78;;;4.73;100.00
30554;BME280;17335;50.720;7.452;2024-02-26T09:02:14;97682.84;;;4.80;100.00
30554;BME280;17335;50.720;7.452;2024-02-26T09:04:41;97687.91;;;4.74;100.00
30554;BME280;17335;50.720;7.452;2024-02-26T09:07:08;97688.16;;;4.80;100.00
30554;BME280;17335;50.720;7.452;2024-02-26T09:09:34;97689.88;;;4.72;100.00
30554;BME280;17335;50.720;7.452;2024-02-26T09:12:02;97692.50;;;4.81;100.00
30554;BME280;17335;50.720;7.452;2024-02-26T09:14:29;97693.09;;;4.75;100.00
30554;BME280;17335;50.720;7.452;2024-02-26T09:16:55;97691.94;;;4.78;100.00
30554;BME280;17335;50.720;7.452;2024-02-26T09:19:23;97694.84;;;4.84;100.00
30554;BME280;17335;50.720;7.452;2024-02-26T09:21:50;97702.91;;;4.93;100.00
30554;BME280;17335;50.720;7.452;2024-02-26T09:24:16;97701.22;;;4.92;100.00
30554;BME280;17335;50.720;7.452;2024-02-26T09:26:43;97710.75;;;4.94;100.00
30554;BME280;17335;50.720;7.452;2024-02-26T09:29:09;97703.50;;;4.86;100.00
30554;BME280;17335;50.720;7.452;2024-02-26T09:31:35;97708.28;;;4.83;100.00
30554;BME280;17335;50.720;7.452;2024-02-26T09:34:02;97715.13;;;4.85;100.00
30554;BME280;17335;50.720;7.452;2024-02-26T09:36:29;97714.91;;;4.97;100.00
30554;BME280;17335;50.720;7.452;2024-02-26T09:38:56;97724.97;;;5.03;100.00
30554;BME280;17335;50.720;7.452;2024-02-26T09:41:30;97727.19;;;5.07;100.00
30554;BME280;17335;50.720;7.452;2024-02-26T09:43:58;97728.97;;;5.07;100.00
30554;BME280;17335;50.720;7.452;2024-02-26T09:46:26;97726.31;;;5.07;100.00
30554;BME280;17335;50.720;7.452;2024-02-26T09:48:53;97732.13;;;5.20;100.00
30554;BME280;17335;50.720;7.452;2024-02-26T09:51:22;97721.25;;;5.14;100.00
30554;BME280;17335;50.720;7.452;2024-02-26T09:53:52;97731.28;;;5.20;100.00
30554;BME280;17335;50.720;7.452;2024-02-26T09:56:19;97741.88;;;5.30;100.00
30554;BME280;17335;50.720;7.452;2024-02-26T09:58:47;97737.63;;;5.37;100.00
30554;BME280;17335;50.720;7.452;2024-02-26T10:01:20;97733.59;;;5.51;100.00
30554;BME280;17335;50.720;7.452;2024-02-26T10:03:51;97733.34;;;5.44;100.00
30554;BME280;17335;50.720;7.452;2024-02-26T10:06:19;97728.56;;;5.48;100.00
30554;BME280;17335;50.720;7.452;2024-02-26T10:08:46;97733.59;;;5.51;100.00
30554;BME280;17335;50.720;7.452;2024-02-26T10:11:14;97727.25;;;5.52;100.00
30554;BME280;17335;50.720;7.452;2024-02-26T10:13:41;97731.16;;;5.57;100.00
30554;BME280;17335;50.720;7.452;2024-02-26T10:16:07;97727.63;;;5.57;100.00
30554;BME280;17335;50.720;7.452;2024-02-26T10:18:50;97736.47;;;5.57;100.00
30554;BME280;17335;50.720;7.452;2024-02-26T10:21:25;97740.50;;;5.61;100.00
30554;BME280;17335;50.720;7.452;2024-02-26T10:23:52;97742.59;;;5.76;100.00
30554;BME280;17335;50.720;7.452;2024-02-26T10:26:19;97740.94;;;5.75;100.00
30554;BME280;17335;50.720;7.452;2024-02-26T10:28:46;97747.25;;;5.74;100.00
30554;BME280;17335;50.720;7.452;2024-02-26T10:31:18;97752.97;;;5.79;100.00
30554;BME280;17335;50.720;7.452;2024-02-26T10:33:45;97756.47;;;5.79;100.00
30554;BME280;17335;50.720;7.452;2024-02-26T10:36:12;97753.50;;;6.00;100.00
30554;BME280;17335;50.720;7.452;2024-02-26T10:38:38;97758.16;;;5.98;100.00
30554;BME280;17335;50.720;7.452;2024-02-26T10:41:13;97756.38;;;6.07;100.00
30554;BME280;17335;50.720;7.452;2024-02-26T10:43:42;97763.84;;;6.04;100.00
30554;BME280;17335;50.720;7.452;2024-02-26T10:46:08;97763.84;;;6.04;100.00
30554;BME280;17335;50.720;7.452;2024-02-26T10:48:36;97772.00;;;6.02;100.00
30554;BME280;17335;50.720;7.452;2024-02-26T10:51:03;97774.91;;;6.17;100.00
30554;BME280;17335;50.720;7.452;2024-02-26T10:53:31;97754.91;;;6.13;100.00
30554;BME280;17335;50.720;7.452;2024-02-26T10:56:03;97769.66;;;6.25;100.00
30554;BME280;17335;50.720;7.452;2024-02-26T10:58:31;97764.03;;;6.28;100.00
30554;BME280;17335;50.720;7.452;2024-02-26T11:00:58;97771.50;;;6.25;100.00
30554;BME280;17335;50.720;7.452;2024-02-26T11:03:26;97774.69;;;6.28;100.00
30554;BME280;17335;50.720;7.452;2024-02-26T11:05:53;97782.44;;;6.40;100.00
30554;BME280;17335;50.720;7.452;2024-02-26T11:08:20;97782.00;;;6.26;100.00
30554;BME280;17335;50.720;7.452;2024-02-26T11:10:53;97781.13;;;6.26;100.00
30554;BME280;17335;50.720;7.452;2024-02-26T11:13:21;97782.00;;;6.26;100.00
30554;BME280;17335;50.720;7.452;2024-02-26T11:15:49;97788.22;;;6.35;100.00
30554;BME280;17335;50.720;7.452;2024-02-26T11:18:19;97797.03;;;6.35;100.00
30554;BME280;17335;50.720;7.452;2024-02-26T11:20:46;97790.41;;;6.40;100.00
30554;BME280;17335;50.720;7.452;2024-02-26T11:23:14;97802.00;;;6.30;100.00
30554;BME280;17335;50.720;7.452;2024-02-26T11:25:42;97814.03;;;6.34;100.00
30554;BME280;17335;50.720;7.452;2024-02-26T11:28:13;97812.66;;;6.30;100.00
30554;BME280;17335;50.720;7.452;2024-02-26T11:30:49;97818.13;;;6.29;100.00
30554;BME280;17335;50.720;7.452;2024-02-26T11:33:16;97817.84;;;6.32;100.00
30554;BME280;17335;50.720;7.452;2024-02-26T11:35:43;97818.13;;;6.29;100.00
30554;BME280;17335;50.720;7.452;2024-02-26T11:38:17;97820.41;;;6.42;100.00
30554;BME280;17335;50.720;7.452;2024-02-26T11:40:45;97815.44;;;6.47;100.00
30554;BME280;17335;50.720;7.452;2024-02-26T11:43:12;97817.59;;;6.43;100.00
30554;BME280;17335;50.720;7.452;2024-02-26T11:48:12;97813.91;;;6.44;100.00
30554;BME280;17335;50.720;7.452;2024-02-26T11:50:41;97804.16;;;6.53;100.00
30554;BME280;17335;50.720;7.452;2024-02-26T11:55:47;97809.06;;;6.40;100.00
30554;BME280;17335;50.720;7.452;2024-02-26T11:58:14;97809.69;;;6.60;100.00
30554;BME280;17335;50.720;7.452;2024-02-26T12:00:41;97805.81;;;6.54;100.00
30554;BME280;17335;50.720;7.452;2024-02-26T12:03:08;97808.41;;;6.72;100.00
30554;BME280;17335;50.720;7.452;2024-02-26T12:05:37;97815.28;;;6.74;100.00
30554;BME280;17335;50.720;7.452;2024-02-26T12:08:05;97815.53;;;6.89;100.00
30554;BME280;17335;50.720;7.452;2024-02-26T12:10:39;97828.44;;;7.02;100.00
30554;BME280;17335;50.720;7.452;2024-02-26T12:13:16;97832.41;;;6.98;100.00
30554;BME280;17335;50.720;7.452;2024-02-26T12:15:55;97825.59;;;7.04;100.00
30554;BME280;17335;50.720;7.452;2024-02-26T12:18:22;97821.28;;;7.11;100.00
30554;BME280;17335;50.720;7.452;2024-02-26T12:21:02;97824.06;;;6.93;100.00
30554;BME280;17335;50.720;7.452;2024-02-26T12:23:30;97834.84;;;6.83;100.00
30554;BME280;17335;50.720;7.452;2024-02-26T12:26:00;97837.56;;;6.91;100.00
30554;BME280;17335;50.720;7.452;2024-02-26T12:28:31;97849.19;;;6.90;100.00
30554;BME280;17335;50.720;7.452;2024-02-26T12:30:58;97844.22;;;6.95;100.00
30554;BME280;17335;50.720;7.452;2024-02-26T12:33:26;97850.44;;;7.04;100.00
30554;BME280;17335;50.720;7.452;2024-02-26T12:35:54;97845.81;;;7.14;100.00
30554;BME280;17335;50.720;7.452;2024-02-26T12:38:21;97868.03;;;6.89;100.00
30554;BME280;17335;50.720;7.452;2024-02-26T12:40:48;97856.44;;;6.98;100.00
30554;BME280;17335;50.720;7.452;2024-02-26T12:43:15;97862.19;;;6.85;100.00
30554;BME280;17335;50.720;7.452;2024-02-26T12:45:42;97860.69;;;6.91;100.00
30554;BME280;17335;50.720;7.452;2024-02-26T12:48:12;97877.06;;;6.96;100.00
30554;BME280;17335;50.720;7.452;2024-02-26T12:50:39;97875.78;;;7.00;100.00
30554;BME280;17335;50.720;7.452;2024-02-26T12:53:06;97878.81;;;7.05;100.00
30554;BME280;17335;50.720;7.452;2024-02-26T12:55:33;97874.38;;;6.88;100.00
30554;BME280;17335;50.720;7.452;2024-02-26T12:58:01;97881.31;;;6.81;100.00
30554;BME280;17335;50.720;7.452;2024-02-26T13:00:29;97888.38;;;6.90;100.00
30554;BME280;17335;50.720;7.452;2024-02-26T13:02:56;97883.78;;;7.00;100.00
30554;BME280;17335;50.720;7.452;2024-02-26T13:05:25;97888.53;;;6.88;100.00